Cooperstown, North Dakota
Current Conditions -  °F | °C
As of 4:35 AM on Sunday 21 Dec 2014 (Local Time) from KBAC Reporting Station
Haze Haze  
Wind Chill: 14°   Ceiling: 200
Heat Index: 27°   Visibility: 1mi
Dew Point: 27°   Wind: 16mph
Humidity: 100%   Direction: 200°SSW
Pressure: 29.73"   Gusts: NA
Location:  47.44°N, 98.12°W
Report Text: KBAC 211035Z AUTO 20014KT 1SM BR OVC002 M03/M03 A2973 RMK AO2
Loading
Personal Weather Stations






























Interactive Weather Map New forecast layout! Learn more

10-Day Weather Forecast

Advertisements
Track Severe Weather on mobile